Aquarius — YP2715 — position and weather

sailwx.info

Track history (hours):
 
Tides and Currents Weather Stations Pressure Air Temp Water Temp Dewpoint Dewpoint Depression Visibility Wind Speed Wind Dir Waves Ship Positions

Aquarius

Last reported at 2018-Jan-03 08:10 UTC. Time now 2018-Feb-25 08:02 UTC.
Position N 44°17' E 028°05'.
Warning: this ship's position is 52 days out of date.

Length 67 m; draft 1.1 m.

Type: Ship. MMSI: 264162715.

Date/timePositionNaut miles runAvg speedWind from/ knotsBaromVisibWave heightAir tempDewpointWater temp
2018-Jan-03 08:10N 44°17' E 028°05'1 4.5
2018-Jan-03 08:00N 44°16' E 028°05'2 4.4
2018-Jan-03 07:30N 44°16' E 028°08'2 4.6
2018-Jan-03 07:00N 44°16' E 028°12'2 4.6
2018-Jan-03 06:30N 44°15' E 028°15'2 4.5
2018-Jan-03 06:00N 44°15' E 028°18'2 4.5
2018-Jan-03 05:30N 44°15' E 028°21'2 4.6
2018-Jan-03 05:00N 44°13' E 028°23'2 4.0
2018-Jan-03 04:30N 44°11' E 028°24'0 0.0
2018-Jan-03 04:00N 44°11' E 028°24'0 0.0
2018-Jan-03 03:30N 44°11' E 028°24'0 0.0
2018-Jan-03 03:00N 44°11' E 028°24'0 0.0
2018-Jan-03 02:30N 44°11' E 028°24'0 0.0
2018-Jan-03 02:00N 44°11' E 028°24'0 0.0
2018-Jan-03 01:30N 44°11' E 028°24'0 0.0
2018-Jan-03 01:00N 44°11' E 028°24'0 0.0
2018-Jan-03 00:30N 44°11' E 028°24'0 0.0
2018-Jan-03 00:00N 44°11' E 028°24'0 0.0
2018-Jan-02 23:30N 44°11' E 028°24'0 0.0
2018-Jan-02 23:00N 44°11' E 028°24'0 0.0
2018-Jan-02 22:30N 44°11' E 028°24'0 0.0
2018-Jan-02 22:00N 44°11' E 028°24'0 0.0
2018-Jan-02 21:30N 44°11' E 028°24'0 0.0
2018-Jan-02 21:00N 44°11' E 028°24'0 0.0
2018-Jan-02 20:30N 44°11' E 028°24'0 0.0
2018-Jan-02 20:00N 44°11' E 028°24'0 0.0
2018-Jan-02 19:30N 44°11' E 028°24'0 0.0
2018-Jan-02 19:00N 44°11' E 028°24'0 0.0
2018-Jan-02 18:30N 44°11' E 028°24'0 0.0
2018-Jan-02 18:00N 44°11' E 028°24'0 0.0
2018-Jan-02 17:30N 44°11' E 028°24'0 0.0
2018-Jan-02 17:00N 44°11' E 028°24'0 0.0
2018-Jan-02 16:30N 44°11' E 028°24'0 0.0
2018-Jan-02 16:00N 44°11' E 028°24'0 0.0
2018-Jan-02 15:30N 44°11' E 028°24'0 0.0
2018-Jan-02 15:00N 44°11' E 028°24'0 0.0
2018-Jan-02 14:30N 44°11' E 028°24'0 0.0
2018-Jan-02 14:00N 44°11' E 028°24'0 0.2
2018-Jan-02 13:30N 44°11' E 028°24'2 3.6
2018-Jan-02 12:56N 44°09' E 028°26'5 3.6
2018-Jan-02 11:28N 44°06' E 028°31'2 4.8
2018-Jan-02 11:00N 44°06' E 028°34'2 4.2
2018-Jan-02 10:30N 44°06' E 028°37'0 0.4
2018-Jan-02 10:00N 44°06' E 028°38'2 3.1
2018-Jan-02 09:31N 44°07' E 028°39'0 0.4
2018-Jan-02 08:30N 44°08' E 028°39'0 0.0
2018-Jan-02 08:00N 44°08' E 028°39'0 0.0
2018-Jan-02 07:30N 44°08' E 028°39'0 0.9
2018-Jan-02 07:00N 44°07' E 028°39'0 0.0
2018-Jan-02 06:30N 44°07' E 028°39'0 0.0
2018-Jan-02 06:00N 44°07' E 028°39'0 0.0
2018-Jan-02 05:30N 44°07' E 028°39'0 0.0
2018-Jan-02 04:30N 44°07' E 028°39'0 0.0
2018-Jan-02 04:00N 44°07' E 028°39'0 0.0
2018-Jan-02 03:30N 44°07' E 028°39'0 0.0
2018-Jan-02 03:00N 44°07' E 028°39'0 0.0
2018-Jan-02 02:30N 44°07' E 028°39'0 0.0
2018-Jan-02 02:00N 44°07' E 028°39'0 0.0
2018-Jan-02 01:30N 44°07' E 028°39'0 0.0
2018-Jan-02 01:00N 44°07' E 028°39'0 0.0
2018-Jan-02 00:30N 44°07' E 028°39'0 0.0
2018-Jan-02 00:00N 44°07' E 028°39'0 0.0
2018-Jan-01 23:30N 44°07' E 028°39'0 0.0
2018-Jan-01 23:00N 44°07' E 028°39'0 0.0
2018-Jan-01 22:30N 44°07' E 028°39'0 0.0
2018-Jan-01 22:00N 44°07' E 028°39'0 0.0
2018-Jan-01 21:30N 44°07' E 028°39'0 0.0
2018-Jan-01 21:00N 44°07' E 028°39'0 0.0
2018-Jan-01 20:30N 44°07' E 028°39'0 0.0
2018-Jan-01 20:00N 44°07' E 028°39'0 0.0
2018-Jan-01 19:30N 44°07' E 028°39'0 0.0
2018-Jan-01 19:00N 44°07' E 028°39'0 0.0
2018-Jan-01 18:30N 44°07' E 028°39'0 0.0
2018-Jan-01 18:00N 44°07' E 028°39'0 0.0
2018-Jan-01 17:30N 44°07' E 028°39'0 0.0
2018-Jan-01 15:00N 44°07' E 028°39'0 0.0
2018-Jan-01 14:30N 44°07' E 028°39'0 0.0
2018-Jan-01 14:00N 44°07' E 028°39'0 0.0
2018-Jan-01 13:30N 44°07' E 028°39'0 0.0
2018-Jan-01 13:00N 44°07' E 028°39'0 0.0
2018-Jan-01 12:00N 44°07' E 028°39'0 0.0
2018-Jan-01 11:30N 44°07' E 028°39'0 0.0
2018-Jan-01 11:00N 44°07' E 028°39'0 0.0
2018-Jan-01 10:30N 44°07' E 028°39'0 0.0
2018-Jan-01 10:01N 44°07' E 028°39'0 0.0
2018-Jan-01 09:30N 44°07' E 028°39'0 0.0
2018-Jan-01 08:30N 44°07' E 028°39'0 0.0
2018-Jan-01 08:00N 44°07' E 028°39'0 0.0
2018-Jan-01 07:30N 44°07' E 028°39'0 0.0
2018-Jan-01 07:00N 44°07' E 028°39'0 0.0
2018-Jan-01 06:00N 44°07' E 028°39'0 0.0
2018-Jan-01 05:30N 44°07' E 028°39'0 0.0
2018-Jan-01 05:00N 44°07' E 028°39'0 0.0
2018-Jan-01 04:00N 44°07' E 028°39'0 0.0
2018-Jan-01 03:30N 44°07' E 028°39'0 0.0
2018-Jan-01 03:00N 44°07' E 028°39'0 0.0
2018-Jan-01 02:30N 44°07' E 028°39'0 0.0
2018-Jan-01 02:00N 44°07' E 028°39'0 0.0
2018-Jan-01 01:30N 44°07' E 028°39'0 0.0
2018-Jan-01 00:30N 44°07' E 028°39'0 0.0
2017-Dec-31 21:00N 44°07' E 028°39'0 0.0
2017-Dec-31 20:30N 44°07' E 028°39'0 0.0
2017-Dec-31 20:00N 44°07' E 028°39'0 0.0
2017-Dec-31 19:30N 44°07' E 028°39'0 0.0
2017-Dec-31 19:00N 44°07' E 028°39'0 0.0
2017-Dec-31 18:30N 44°07' E 028°39'0 0.0
2017-Dec-31 18:00N 44°07' E 028°39'0 0.0
2017-Dec-31 17:30N 44°07' E 028°39'0 0.0
2017-Dec-31 17:00N 44°07' E 028°39'0 0.0
2017-Dec-31 16:30N 44°07' E 028°39'0 0.0
2017-Dec-31 16:00N 44°07' E 028°39'0 0.0
2017-Dec-31 15:30N 44°07' E 028°39'0 0.0
2017-Dec-31 15:00N 44°07' E 028°39'0 0.0
2017-Dec-31 14:30N 44°07' E 028°39'0 0.0
2017-Dec-31 14:00N 44°07' E 028°39'0 0.0
2017-Dec-31 13:30N 44°07' E 028°39'0 0.0
2017-Dec-31 13:00N 44°07' E 028°39'0 0.0
2017-Dec-31 12:30N 44°07' E 028°39'0 0.4
2017-Dec-31 12:00N 44°07' E 028°39'2 3.9
2017-Dec-31 11:30N 44°09' E 028°40'0 0.8
2017-Dec-31 11:00N 44°09' E 028°39'0 0.0
2017-Dec-31 10:30N 44°09' E 028°39'0 0.0
2017-Dec-31 10:00N 44°09' E 028°39'0 0.0
2017-Dec-31 09:30N 44°09' E 028°39'0 0.0
2017-Dec-31 09:00N 44°09' E 028°39'0 0.0
2017-Dec-31 08:30N 44°09' E 028°39'0 0.0
2017-Dec-31 08:00N 44°09' E 028°39'0 0.0
2017-Dec-31 07:30N 44°09' E 028°39'0 0.0
2017-Dec-31 07:00N 44°09' E 028°39'0 0.0
2017-Dec-31 06:30N 44°09' E 028°39'0 0.0
2017-Dec-31 06:00N 44°09' E 028°39'0 0.0
2017-Dec-31 05:30N 44°09' E 028°39'0 0.0
2017-Dec-31 05:00N 44°09' E 028°39'0 0.0
2017-Dec-31 04:30N 44°09' E 028°39'0 0.0
2017-Dec-31 04:00N 44°09' E 028°39'0 0.0
2017-Dec-31 03:30N 44°09' E 028°39'0 0.0
2017-Dec-31 03:00N 44°09' E 028°39'0 0.0
2017-Dec-31 02:30N 44°09' E 028°39'0 0.0
2017-Dec-31 02:00N 44°09' E 028°39'0 0.0
2017-Dec-31 01:30N 44°09' E 028°39'0 0.0
2017-Dec-31 01:00N 44°09' E 028°39'0 0.0
2017-Dec-31 00:30N 44°09' E 028°39'0 0.0
2017-Dec-31 00:00N 44°09' E 028°39'0 0.0
2017-Dec-30 23:30N 44°09' E 028°39'0 0.0
2017-Dec-30 23:00N 44°09' E 028°39'0 0.0
2017-Dec-30 22:30N 44°09' E 028°39'0 0.0
2017-Dec-30 22:00N 44°09' E 028°39'0 0.0
2017-Dec-30 21:30N 44°09' E 028°39'0 0.0
2017-Dec-30 21:00N 44°09' E 028°39'0 0.0
2017-Dec-30 20:30N 44°09' E 028°39'0 0.0
2017-Dec-30 20:00N 44°09' E 028°39'0 0.0
2017-Dec-30 19:30N 44°09' E 028°39'0 0.0
2017-Dec-30 19:00N 44°09' E 028°39'0 0.0
2017-Dec-30 18:30N 44°09' E 028°39'1 0.1
2017-Dec-30 08:06N 44°08' E 028°39'0 5.0
2017-Dec-30 08:00N 44°08' E 028°39'0 0.9
2017-Dec-30 07:30N 44°07' E 028°39'0 0.0
2017-Dec-30 07:00N 44°07' E 028°39'0 0.0
2017-Dec-30 06:30N 44°07' E 028°39'0 0.0
2017-Dec-30 06:00N 44°07' E 028°39'0 0.0
2017-Dec-30 05:30N 44°07' E 028°39'0 0.0
2017-Dec-30 05:00N 44°07' E 028°39'0 0.0
2017-Dec-30 04:30N 44°07' E 028°39'0 0.0
2017-Dec-30 04:00N 44°07' E 028°39'0 0.0
2017-Dec-30 03:30N 44°07' E 028°39'0 0.0
2017-Dec-30 03:00N 44°07' E 028°39'0 0.0
2017-Dec-30 02:30N 44°07' E 028°39'0 0.0
2017-Dec-30 02:00N 44°07' E 028°39'0 0.0
2017-Dec-30 01:30N 44°07' E 028°39'0 0.0
2017-Dec-30 01:00N 44°07' E 028°39'0 0.0
2017-Dec-30 00:30N 44°07' E 028°39'0 0.0
2017-Dec-30 00:01N 44°07' E 028°39'0 0.0
2017-Dec-29 23:30N 44°07' E 028°39'0 0.0
2017-Dec-29 23:00N 44°07' E 028°39'0 0.0
2017-Dec-29 22:30N 44°07' E 028°39'0 0.0
2017-Dec-29 22:00N 44°07' E 028°39'0 0.0
2017-Dec-29 21:30N 44°07' E 028°39'0 0.0
2017-Dec-29 21:00N 44°07' E 028°39'0 0.0
2017-Dec-29 20:30N 44°07' E 028°39'0 0.0
2017-Dec-29 20:00N 44°07' E 028°39'0 0.0
2017-Dec-29 19:30N 44°07' E 028°39'0 0.0
2017-Dec-29 19:00N 44°07' E 028°39'0 0.0
2017-Dec-29 18:30N 44°07' E 028°39'0 0.0
2017-Dec-29 18:00N 44°07' E 028°39'0 0.0
2017-Dec-29 17:30N 44°07' E 028°39'0 0.0
2017-Dec-29 17:00N 44°07' E 028°39'0 0.0
2017-Dec-29 16:30N 44°07' E 028°39'0 0.0
2017-Dec-29 16:00N 44°07' E 028°39'0 0.0
2017-Dec-29 15:30N 44°07' E 028°39'0 0.0
2017-Dec-29 15:00N 44°07' E 028°39'0 0.0
2017-Dec-29 14:30N 44°07' E 028°39'0 0.0
2017-Dec-29 14:00N 44°07' E 028°39'0 0.0
2017-Dec-29 13:30N 44°07' E 028°39'0 0.0
2017-Dec-29 13:00N 44°07' E 028°39'0 0.0
2017-Dec-29 12:30N 44°07' E 028°39'0 0.1
2017-Dec-29 12:00N 44°07' E 028°39'0 0.5
2017-Dec-29 11:30N 44°07' E 028°39'0 0.0
2017-Dec-29 11:00N 44°07' E 028°39'1 2.3
2017-Dec-29 10:30N 44°06' E 028°39'1 2.2
2017-Dec-29 10:00N 44°06' E 028°37'0 0.3
2017-Dec-29 09:30N 44°06' E 028°37'1 2.1
2017-Dec-29 09:00N 44°06' E 028°36'2 3.2
2017-Dec-29 08:30N 44°06' E 028°33'6 3.3
2017-Dec-29 06:37N 44°09' E 028°26'1 4.1
2017-Dec-29 06:23N 44°10' E 028°25'1 3.9
2017-Dec-29 06:00N 44°11' E 028°24'2 4.0
2017-Dec-29 05:30N 44°13' E 028°23'2 4.1
2017-Dec-29 05:00N 44°15' E 028°21'2 3.6
2017-Dec-29 04:30N 44°15' E 028°19'0 0.2
2017-Dec-29 03:08N 44°15' E 028°18'0 0.0
2017-Dec-29 02:50N 44°15' E 028°18'0 0.0
2017-Dec-29 02:28N 44°15' E 028°18'0 0.0
2017-Dec-28 16:44N 44°15' E 028°18'0 0.1
2017-Dec-28 16:30N 44°15' E 028°18'1 1.0
2017-Dec-28 16:00N 44°15' E 028°18'2 3.5
2017-Dec-28 15:30N 44°15' E 028°15'2 3.8
2017-Dec-28 15:00N 44°16' E 028°13'2 3.8
2017-Dec-28 14:30N 44°16' E 028°10'2 3.9
2017-Dec-28 14:00N 44°16' E 028°07'  
Track history (hours):
 
Tides and Currents Weather Stations Pressure Air Temp Water Temp Dewpoint Dewpoint Depression Visibility Wind Speed Wind Dir Waves Ship Positions

Aquarius

Last reported at 2018-Jan-03 08:10 UTC. Time now 2018-Feb-25 08:02 UTC.
Position N 44°17' E 028°05'.
Warning: this ship's position is 52 days out of date.

Length 67 m; draft 1.1 m.

Type: Ship. MMSI: 264162715.

Date/timePositionNaut miles runAvg speedWind from/ knotsBaromVisibWave heightAir tempDewpointWater temp
2018-Jan-03 08:10N 44°17' E 028°05'1 4.5
2018-Jan-03 08:00N 44°16' E 028°05'2 4.4
2018-Jan-03 07:30N 44°16' E 028°08'2 4.6
2018-Jan-03 07:00N 44°16' E 028°12'2 4.6
2018-Jan-03 06:30N 44°15' E 028°15'2 4.5
2018-Jan-03 06:00N 44°15' E 028°18'2 4.5
2018-Jan-03 05:30N 44°15' E 028°21'2 4.6
2018-Jan-03 05:00N 44°13' E 028°23'2 4.0
2018-Jan-03 04:30N 44°11' E 028°24'0 0.0
2018-Jan-03 04:00N 44°11' E 028°24'0 0.0
2018-Jan-03 03:30N 44°11' E 028°24'0 0.0
2018-Jan-03 03:00N 44°11' E 028°24'0 0.0
2018-Jan-03 02:30N 44°11' E 028°24'0 0.0
2018-Jan-03 02:00N 44°11' E 028°24'0 0.0
2018-Jan-03 01:30N 44°11' E 028°24'0 0.0
2018-Jan-03 01:00N 44°11' E 028°24'0 0.0
2018-Jan-03 00:30N 44°11' E 028°24'0 0.0
2018-Jan-03 00:00N 44°11' E 028°24'0 0.0
2018-Jan-02 23:30N 44°11' E 028°24'0 0.0
2018-Jan-02 23:00N 44°11' E 028°24'0 0.0
2018-Jan-02 22:30N 44°11' E 028°24'0 0.0
2018-Jan-02 22:00N 44°11' E 028°24'0 0.0
2018-Jan-02 21:30N 44°11' E 028°24'0 0.0
2018-Jan-02 21:00N 44°11' E 028°24'0 0.0
2018-Jan-02 20:30N 44°11' E 028°24'0 0.0
2018-Jan-02 20:00N 44°11' E 028°24'0 0.0
2018-Jan-02 19:30N 44°11' E 028°24'0 0.0
2018-Jan-02 19:00N 44°11' E 028°24'0 0.0
2018-Jan-02 18:30N 44°11' E 028°24'0 0.0
2018-Jan-02 18:00N 44°11' E 028°24'0 0.0
2018-Jan-02 17:30N 44°11' E 028°24'0 0.0
2018-Jan-02 17:00N 44°11' E 028°24'0 0.0
2018-Jan-02 16:30N 44°11' E 028°24'0 0.0
2018-Jan-02 16:00N 44°11' E 028°24'0 0.0
2018-Jan-02 15:30N 44°11' E 028°24'0 0.0
2018-Jan-02 15:00N 44°11' E 028°24'0 0.0
2018-Jan-02 14:30N 44°11' E 028°24'0 0.0
2018-Jan-02 14:00N 44°11' E 028°24'0 0.2
2018-Jan-02 13:30N 44°11' E 028°24'2 3.6
2018-Jan-02 12:56N 44°09' E 028°26'5 3.6
2018-Jan-02 11:28N 44°06' E 028°31'2 4.8
2018-Jan-02 11:00N 44°06' E 028°34'2 4.2
2018-Jan-02 10:30N 44°06' E 028°37'0 0.4
2018-Jan-02 10:00N 44°06' E 028°38'2 3.1
2018-Jan-02 09:31N 44°07' E 028°39'0 0.4
2018-Jan-02 08:30N 44°08' E 028°39'0 0.0
2018-Jan-02 08:00N 44°08' E 028°39'0 0.0
2018-Jan-02 07:30N 44°08' E 028°39'0 0.9
2018-Jan-02 07:00N 44°07' E 028°39'0 0.0
2018-Jan-02 06:30N 44°07' E 028°39'0 0.0
2018-Jan-02 06:00N 44°07' E 028°39'0 0.0
2018-Jan-02 05:30N 44°07' E 028°39'0 0.0
2018-Jan-02 04:30N 44°07' E 028°39'0 0.0
2018-Jan-02 04:00N 44°07' E 028°39'0 0.0
2018-Jan-02 03:30N 44°07' E 028°39'0 0.0
2018-Jan-02 03:00N 44°07' E 028°39'0 0.0
2018-Jan-02 02:30N 44°07' E 028°39'0 0.0
2018-Jan-02 02:00N 44°07' E 028°39'0 0.0
2018-Jan-02 01:30N 44°07' E 028°39'0 0.0
2018-Jan-02 01:00N 44°07' E 028°39'0 0.0
2018-Jan-02 00:30N 44°07' E 028°39'0 0.0
2018-Jan-02 00:00N 44°07' E 028°39'0 0.0
2018-Jan-01 23:30N 44°07' E 028°39'0 0.0
2018-Jan-01 23:00N 44°07' E 028°39'0 0.0
2018-Jan-01 22:30N 44°07' E 028°39'0 0.0
2018-Jan-01 22:00N 44°07' E 028°39'0 0.0
2018-Jan-01 21:30N 44°07' E 028°39'0 0.0
2018-Jan-01 21:00N 44°07' E 028°39'0 0.0
2018-Jan-01 20:30N 44°07' E 028°39'0 0.0
2018-Jan-01 20:00N 44°07' E 028°39'0 0.0
2018-Jan-01 19:30N 44°07' E 028°39'0 0.0
2018-Jan-01 19:00N 44°07' E 028°39'0 0.0
2018-Jan-01 18:30N 44°07' E 028°39'0 0.0
2018-Jan-01 18:00N 44°07' E 028°39'0 0.0
2018-Jan-01 17:30N 44°07' E 028°39'0 0.0
2018-Jan-01 15:00N 44°07' E 028°39'0 0.0
2018-Jan-01 14:30N 44°07' E 028°39'0 0.0
2018-Jan-01 14:00N 44°07' E 028°39'0 0.0
2018-Jan-01 13:30N 44°07' E 028°39'0 0.0
2018-Jan-01 13:00N 44°07' E 028°39'0 0.0
2018-Jan-01 12:00N 44°07' E 028°39'0 0.0
2018-Jan-01 11:30N 44°07' E 028°39'0 0.0
2018-Jan-01 11:00N 44°07' E 028°39'0 0.0
2018-Jan-01 10:30N 44°07' E 028°39'0 0.0
2018-Jan-01 10:01N 44°07' E 028°39'0 0.0
2018-Jan-01 09:30N 44°07' E 028°39'0 0.0
2018-Jan-01 08:30N 44°07' E 028°39'0 0.0
2018-Jan-01 08:00N 44°07' E 028°39'0 0.0
2018-Jan-01 07:30N 44°07' E 028°39'0 0.0
2018-Jan-01 07:00N 44°07' E 028°39'0 0.0
2018-Jan-01 06:00N 44°07' E 028°39'0 0.0
2018-Jan-01 05:30N 44°07' E 028°39'0 0.0
2018-Jan-01 05:00N 44°07' E 028°39'0 0.0
2018-Jan-01 04:00N 44°07' E 028°39'0 0.0
2018-Jan-01 03:30N 44°07' E 028°39'0 0.0
2018-Jan-01 03:00N 44°07' E 028°39'0 0.0
2018-Jan-01 02:30N 44°07' E 028°39'0 0.0
2018-Jan-01 02:00N 44°07' E 028°39'0 0.0
2018-Jan-01 01:30N 44°07' E 028°39'0 0.0
2018-Jan-01 00:30N 44°07' E 028°39'0 0.0
2017-Dec-31 21:00N 44°07' E 028°39'0 0.0
2017-Dec-31 20:30N 44°07' E 028°39'0 0.0
2017-Dec-31 20:00N 44°07' E 028°39'0 0.0
2017-Dec-31 19:30N 44°07' E 028°39'0 0.0
2017-Dec-31 19:00N 44°07' E 028°39'0 0.0
2017-Dec-31 18:30N 44°07' E 028°39'0 0.0
2017-Dec-31 18:00N 44°07' E 028°39'0 0.0
2017-Dec-31 17:30N 44°07' E 028°39'0 0.0
2017-Dec-31 17:00N 44°07' E 028°39'0 0.0
2017-Dec-31 16:30N 44°07' E 028°39'0 0.0
2017-Dec-31 16:00N 44°07' E 028°39'0 0.0
2017-Dec-31 15:30N 44°07' E 028°39'0 0.0
2017-Dec-31 15:00N 44°07' E 028°39'0 0.0
2017-Dec-31 14:30N 44°07' E 028°39'0 0.0
2017-Dec-31 14:00N 44°07' E 028°39'0 0.0
2017-Dec-31 13:30N 44°07' E 028°39'0 0.0
2017-Dec-31 13:00N 44°07' E 028°39'0 0.0
2017-Dec-31 12:30N 44°07' E 028°39'0 0.4
2017-Dec-31 12:00N 44°07' E 028°39'2 3.9
2017-Dec-31 11:30N 44°09' E 028°40'0 0.8
2017-Dec-31 11:00N 44°09' E 028°39'0 0.0
2017-Dec-31 10:30N 44°09' E 028°39'0 0.0
2017-Dec-31 10:00N 44°09' E 028°39'0 0.0
2017-Dec-31 09:30N 44°09' E 028°39'0 0.0
2017-Dec-31 09:00N 44°09' E 028°39'0 0.0
2017-Dec-31 08:30N 44°09' E 028°39'0 0.0
2017-Dec-31 08:00N 44°09' E 028°39'0 0.0
2017-Dec-31 07:30N 44°09' E 028°39'0 0.0
2017-Dec-31 07:00N 44°09' E 028°39'0 0.0
2017-Dec-31 06:30N 44°09' E 028°39'0 0.0
2017-Dec-31 06:00N 44°09' E 028°39'0 0.0
2017-Dec-31 05:30N 44°09' E 028°39'0 0.0
2017-Dec-31 05:00N 44°09' E 028°39'0 0.0
2017-Dec-31 04:30N 44°09' E 028°39'0 0.0
2017-Dec-31 04:00N 44°09' E 028°39'0 0.0
2017-Dec-31 03:30N 44°09' E 028°39'0 0.0
2017-Dec-31 03:00N 44°09' E 028°39'0 0.0
2017-Dec-31 02:30N 44°09' E 028°39'0 0.0
2017-Dec-31 02:00N 44°09' E 028°39'0 0.0
2017-Dec-31 01:30N 44°09' E 028°39'0 0.0
2017-Dec-31 01:00N 44°09' E 028°39'0 0.0
2017-Dec-31 00:30N 44°09' E 028°39'0 0.0
2017-Dec-31 00:00N 44°09' E 028°39'0 0.0
2017-Dec-30 23:30N 44°09' E 028°39'0 0.0
2017-Dec-30 23:00N 44°09' E 028°39'0 0.0
2017-Dec-30 22:30N 44°09' E 028°39'0 0.0
2017-Dec-30 22:00N 44°09' E 028°39'0 0.0
2017-Dec-30 21:30N 44°09' E 028°39'0 0.0
2017-Dec-30 21:00N 44°09' E 028°39'0 0.0
2017-Dec-30 20:30N 44°09' E 028°39'0 0.0
2017-Dec-30 20:00N 44°09' E 028°39'0 0.0
2017-Dec-30 19:30N 44°09' E 028°39'0 0.0
2017-Dec-30 19:00N 44°09' E 028°39'0 0.0
2017-Dec-30 18:30N 44°09' E 028°39'1 0.1
2017-Dec-30 08:06N 44°08' E 028°39'0 5.0
2017-Dec-30 08:00N 44°08' E 028°39'0 0.9
2017-Dec-30 07:30N 44°07' E 028°39'0 0.0
2017-Dec-30 07:00N 44°07' E 028°39'0 0.0
2017-Dec-30 06:30N 44°07' E 028°39'0 0.0
2017-Dec-30 06:00N 44°07' E 028°39'0 0.0
2017-Dec-30 05:30N 44°07' E 028°39'0 0.0
2017-Dec-30 05:00N 44°07' E 028°39'0 0.0
2017-Dec-30 04:30N 44°07' E 028°39'0 0.0
2017-Dec-30 04:00N 44°07' E 028°39'0 0.0
2017-Dec-30 03:30N 44°07' E 028°39'0 0.0
2017-Dec-30 03:00N 44°07' E 028°39'0 0.0
2017-Dec-30 02:30N 44°07' E 028°39'0 0.0
2017-Dec-30 02:00N 44°07' E 028°39'0 0.0
2017-Dec-30 01:30N 44°07' E 028°39'0 0.0
2017-Dec-30 01:00N 44°07' E 028°39'0 0.0
2017-Dec-30 00:30N 44°07' E 028°39'0 0.0
2017-Dec-30 00:01N 44°07' E 028°39'0 0.0
2017-Dec-29 23:30N 44°07' E 028°39'0 0.0
2017-Dec-29 23:00N 44°07' E 028°39'0 0.0
2017-Dec-29 22:30N 44°07' E 028°39'0 0.0
2017-Dec-29 22:00N 44°07' E 028°39'0 0.0
2017-Dec-29 21:30N 44°07' E 028°39'0 0.0
2017-Dec-29 21:00N 44°07' E 028°39'0 0.0
2017-Dec-29 20:30N 44°07' E 028°39'0 0.0
2017-Dec-29 20:00N 44°07' E 028°39'0 0.0
2017-Dec-29 19:30N 44°07' E 028°39'0 0.0
2017-Dec-29 19:00N 44°07' E 028°39'0 0.0
2017-Dec-29 18:30N 44°07' E 028°39'0 0.0
2017-Dec-29 18:00N 44°07' E 028°39'0 0.0
2017-Dec-29 17:30N 44°07' E 028°39'0 0.0
2017-Dec-29 17:00N 44°07' E 028°39'0 0.0
2017-Dec-29 16:30N 44°07' E 028°39'0 0.0
2017-Dec-29 16:00N 44°07' E 028°39'0 0.0
2017-Dec-29 15:30N 44°07' E 028°39'0 0.0
2017-Dec-29 15:00N 44°07' E 028°39'0 0.0
2017-Dec-29 14:30N 44°07' E 028°39'0 0.0
2017-Dec-29 14:00N 44°07' E 028°39'0 0.0
2017-Dec-29 13:30N 44°07' E 028°39'0 0.0
2017-Dec-29 13:00N 44°07' E 028°39'0 0.0
2017-Dec-29 12:30N 44°07' E 028°39'0 0.1
2017-Dec-29 12:00N 44°07' E 028°39'0 0.5
2017-Dec-29 11:30N 44°07' E 028°39'0 0.0
2017-Dec-29 11:00N 44°07' E 028°39'1 2.3
2017-Dec-29 10:30N 44°06' E 028°39'1 2.2
2017-Dec-29 10:00N 44°06' E 028°37'0 0.3
2017-Dec-29 09:30N 44°06' E 028°37'1 2.1
2017-Dec-29 09:00N 44°06' E 028°36'2 3.2
2017-Dec-29 08:30N 44°06' E 028°33'6 3.3
2017-Dec-29 06:37N 44°09' E 028°26'1 4.1
2017-Dec-29 06:23N 44°10' E 028°25'1 3.9
2017-Dec-29 06:00N 44°11' E 028°24'2 4.0
2017-Dec-29 05:30N 44°13' E 028°23'2 4.1
2017-Dec-29 05:00N 44°15' E 028°21'2 3.6
2017-Dec-29 04:30N 44°15' E 028°19'0 0.2
2017-Dec-29 03:08N 44°15' E 028°18'0 0.0
2017-Dec-29 02:50N 44°15' E 028°18'0 0.0
2017-Dec-29 02:28N 44°15' E 028°18'0 0.0
2017-Dec-28 16:44N 44°15' E 028°18'0 0.1
2017-Dec-28 16:30N 44°15' E 028°18'1 1.0
2017-Dec-28 16:00N 44°15' E 028°18'2 3.5
2017-Dec-28 15:30N 44°15' E 028°15'2 3.8
2017-Dec-28 15:00N 44°16' E 028°13'2 3.8
2017-Dec-28 14:30N 44°16' E 028°10'2 3.9
2017-Dec-28 14:00N 44°16' E 028°07'  

Dump ship's entire track history